createdAt,value
2022-10-13T00:04:13.441Z,6.15
2022-10-13T00:09:14.739Z,6.13
2022-10-13T00:14:16.095Z,6.13
2022-10-13T00:19:17.745Z,6.08
2022-10-13T00:24:19.065Z,6.23
2022-10-13T00:29:20.366Z,6.28
2022-10-13T00:34:21.723Z,6.33
2022-10-13T00:39:23.032Z,6.27
2022-10-13T00:44:43.100Z,6.34
2022-10-13T00:49:44.465Z,6.38
2022-10-13T00:54:46.580Z,6.32
2022-10-13T00:59:48.286Z,6.39
2022-10-13T01:04:50.156Z,6.39
2022-10-13T01:09:51.633Z,6.41
2022-10-13T01:14:55.969Z,6.46
2022-10-13T01:20:36.063Z,6.46
2022-10-13T01:25:52.343Z,6.58
2022-10-13T01:31:05.834Z,6.57
2022-10-13T01:36:09.928Z,6.56
2022-10-13T01:41:21.458Z,6.58
2022-10-13T01:46:31.091Z,6.58
2022-10-13T01:51:33.114Z,6.57
2022-10-13T01:56:34.436Z,6.57
2022-10-13T02:01:50.892Z,6.59
2022-10-13T02:07:04.456Z,6.60
2022-10-13T02:12:09.946Z,6.60
2022-10-13T02:17:11.574Z,6.61
2022-10-13T02:22:14.788Z,6.58
2022-10-13T02:27:16.170Z,6.60
2022-10-13T02:32:17.774Z,6.67
2022-10-13T02:37:19.487Z,6.79
2022-10-13T02:42:21.303Z,6.80
2022-10-13T02:47:22.904Z,6.79
2022-10-13T02:52:24.226Z,6.81
2022-10-13T02:57:25.707Z,6.77
2022-10-13T03:02:27.857Z,6.74
2022-10-13T03:07:29.156Z,6.81
2022-10-13T03:12:30.654Z,6.78
2022-10-13T03:17:31.963Z,6.78
2022-10-13T03:22:33.612Z,6.74
2022-10-13T03:27:34.989Z,6.76
2022-10-13T03:32:36.283Z,6.76
2022-10-13T03:37:37.580Z,6.74
2022-10-13T03:42:39.267Z,6.77
2022-10-13T03:47:40.720Z,6.76
2022-10-13T03:52:42.056Z,6.81
2022-10-13T03:57:43.364Z,6.82
2022-10-13T04:02:44.679Z,6.86
2022-10-13T04:07:45.987Z,7.10
2022-10-13T04:12:48.634Z,7.93
2022-10-13T04:17:49.932Z,8.16
2022-10-13T04:22:51.892Z,7.89
2022-10-13T04:27:53.188Z,7.56
2022-10-13T04:32:54.498Z,7.43
2022-10-13T04:37:57.957Z,7.36
2022-10-13T04:42:59.282Z,7.39
2022-10-13T04:48:00.836Z,7.83
2022-10-13T04:53:02.141Z,7.53
2022-10-13T04:58:03.487Z,7.48
2022-10-13T05:03:04.782Z,7.53
2022-10-13T05:08:06.190Z,7.90
2022-10-13T05:13:07.539Z,7.81
2022-10-13T05:18:08.845Z,7.53
2022-10-13T05:23:10.306Z,7.76
2022-10-13T05:28:11.711Z,8.25
2022-10-13T05:33:13.115Z,8.36
2022-10-13T05:38:14.439Z,8.40
2022-10-13T05:43:15.739Z,8.44
2022-10-13T05:48:17.063Z,8.47
2022-10-13T05:53:18.447Z,8.39
2022-10-13T05:58:19.942Z,8.47
2022-10-13T06:03:23.060Z,8.48
2022-10-13T06:08:24.429Z,8.59
2022-10-13T06:13:26.076Z,8.60
2022-10-13T06:18:27.624Z,8.18
2022-10-13T06:23:28.940Z,8.00
2022-10-13T06:28:30.291Z,7.97
2022-10-13T06:33:32.118Z,7.91
2022-10-13T06:38:33.524Z,8.25
2022-10-13T06:43:40.133Z,8.57
2022-10-13T06:48:42.043Z,8.87
2022-10-13T06:53:43.363Z,9.24
2022-10-13T06:58:44.771Z,9.40
2022-10-13T07:03:49.910Z,9.56
2022-10-13T07:08:51.471Z,9.69
2022-10-13T07:13:54.126Z,9.73
2022-10-13T07:18:55.461Z,9.79
2022-10-13T07:23:56.824Z,10.02
2022-10-13T07:28:58.239Z,10.10
2022-10-13T07:33:59.734Z,10.28
2022-10-13T07:39:02.866Z,10.45
2022-10-13T07:44:04.255Z,10.55
2022-10-13T07:49:05.576Z,10.54
2022-10-13T07:54:07.253Z,10.62
2022-10-13T07:59:08.962Z,10.40
2022-10-13T08:04:10.367Z,10.52
2022-10-13T08:09:12.392Z,10.64
2022-10-13T08:14:13.901Z,10.69
2022-10-13T08:19:16.283Z,10.87
2022-10-13T08:24:18.151Z,10.89
2022-10-13T08:29:22.459Z,10.90
2022-10-13T08:34:25.341Z,12.26
2022-10-13T08:39:26.719Z,12.37
2022-10-13T08:50:00.823Z,14.10
2022-10-13T08:55:02.406Z,13.59
2022-10-13T09:00:05.294Z,15.73
2022-10-13T09:05:11.544Z,14.31
2022-10-13T09:10:14.559Z,13.27
2022-10-13T09:15:17.856Z,13.19
2022-10-13T09:20:21.277Z,13.58
2022-10-13T09:25:22.737Z,14.76
2022-10-13T09:30:41.424Z,14.61
2022-10-13T09:35:47.314Z,13.87
2022-10-13T09:41:07.353Z,13.53
2022-10-13T09:46:18.354Z,13.63
2022-10-13T09:51:29.611Z,13.47
2022-10-13T09:56:36.555Z,13.27
2022-10-13T10:01:40.471Z,13.04
2022-10-13T10:06:42.760Z,12.93
2022-10-13T10:11:45.482Z,13.18
2022-10-13T10:16:50.547Z,13.43
2022-10-13T10:22:04.155Z,13.43
2022-10-13T10:27:15.999Z,13.54
2022-10-13T10:32:29.402Z,13.99
2022-10-13T10:37:46.454Z,14.24
2022-10-13T10:42:51.972Z,14.67
2022-10-13T10:47:56.487Z,16.58
2022-10-13T10:53:00.843Z,16.90
2022-10-13T10:58:07.291Z,16.11
2022-10-13T11:03:29.025Z,16.43
2022-10-13T11:08:30.512Z,18.41
2022-10-13T11:13:50.008Z,17.40
2022-10-13T11:18:54.477Z,17.19
2022-10-13T11:24:01.080Z,17.08
2022-10-13T11:29:03.294Z,16.76
2022-10-13T11:34:24.562Z,16.88
2022-10-13T11:39:28.943Z,16.75
2022-10-13T11:44:45.722Z,17.34
2022-10-13T11:50:03.903Z,17.22
2022-10-13T11:55:10.656Z,17.85
2022-10-13T12:00:16.936Z,18.91
2022-10-13T12:05:25.941Z,18.86
2022-10-13T12:10:32.432Z,18.53
2022-10-13T12:15:41.895Z,18.47
2022-10-13T12:20:43.246Z,18.13
2022-10-13T12:25:47.143Z,17.79
2022-10-13T12:30:59.230Z,17.05
2022-10-13T12:36:33.001Z,16.53
2022-10-13T12:41:36.199Z,16.47
2022-10-13T12:46:37.535Z,16.02
2022-10-13T12:51:39.523Z,16.05
2022-10-13T12:56:42.369Z,16.01
2022-10-13T13:01:44.047Z,15.95
2022-10-13T13:06:56.389Z,15.91
2022-10-13T13:12:04.134Z,15.97
2022-10-13T13:17:07.578Z,15.89
2022-10-13T13:22:09.197Z,15.84
2022-10-13T13:27:18.178Z,15.88
2022-10-13T13:32:20.463Z,15.77
2022-10-13T13:37:27.430Z,15.79
2022-10-13T13:42:29.123Z,15.90
2022-10-13T13:47:30.444Z,15.92
2022-10-13T13:52:31.772Z,15.77
2022-10-13T13:57:33.082Z,15.61
2022-10-13T14:02:34.569Z,15.53
2022-10-13T14:07:36.072Z,15.45
2022-10-13T14:12:37.407Z,15.53
2022-10-13T14:17:38.776Z,15.27
2022-10-13T14:22:40.227Z,14.97
2022-10-13T14:27:41.548Z,14.78
2022-10-13T14:32:42.917Z,14.58
2022-10-13T14:37:44.223Z,14.55
2022-10-13T14:42:45.541Z,14.46
2022-10-13T14:47:46.898Z,14.45
2022-10-13T14:52:48.191Z,14.52
2022-10-13T14:57:49.527Z,14.62
2022-10-13T15:02:50.837Z,14.56
2022-10-13T15:07:52.197Z,14.45
2022-10-13T15:12:53.556Z,14.33
2022-10-13T15:17:54.912Z,14.13
2022-10-13T15:22:56.279Z,14.08
2022-10-13T15:27:57.586Z,14.01
2022-10-13T15:32:58.985Z,13.98
2022-10-13T15:38:00.295Z,13.93
2022-10-13T15:43:01.808Z,13.90
2022-10-13T15:48:04.929Z,13.83
2022-10-13T15:53:06.641Z,13.64
2022-10-13T15:58:12.792Z,13.48
2022-10-13T16:03:17.757Z,13.32
2022-10-13T16:08:19.085Z,13.25
2022-10-13T16:13:20.401Z,13.14
2022-10-13T16:18:21.698Z,13.02
2022-10-13T16:23:23.280Z,12.96
2022-10-13T16:28:24.708Z,12.92
2022-10-13T16:33:26.057Z,12.86
2022-10-13T16:38:27.362Z,12.83
2022-10-13T16:43:29.546Z,12.83
2022-10-13T16:48:31.749Z,12.83
2022-10-13T16:53:33.395Z,12.80
2022-10-13T16:58:35.036Z,12.81
2022-10-13T17:03:37.091Z,12.78
2022-10-13T17:08:38.477Z,12.78
2022-10-13T17:13:39.804Z,12.77
2022-10-13T17:18:41.123Z,12.61
2022-10-13T17:23:48.102Z,12.52
2022-10-13T17:28:49.941Z,12.46
2022-10-13T17:33:51.756Z,12.46
2022-10-13T17:38:54.056Z,12.47
2022-10-13T17:43:55.372Z,12.48
2022-10-13T17:48:57.415Z,12.47
2022-10-13T17:53:59.565Z,12.47
2022-10-13T17:59:02.071Z,12.50
2022-10-13T18:04:08.418Z,12.56
2022-10-13T18:09:14.707Z,12.53
2022-10-13T18:14:16.111Z,12.46
2022-10-13T18:19:17.837Z,12.44
2022-10-13T18:24:19.552Z,12.39
2022-10-13T18:29:20.865Z,12.42
2022-10-13T18:34:23.191Z,12.40
2022-10-13T18:39:28.860Z,12.39
2022-10-13T18:44:30.240Z,12.36
2022-10-13T18:49:31.671Z,12.33
2022-10-13T18:54:33.048Z,12.27
2022-10-13T18:59:38.589Z,12.26
2022-10-13T19:04:40.036Z,12.20
2022-10-13T19:09:41.341Z,12.19
2022-10-13T19:14:43.664Z,12.21
2022-10-13T19:19:46.215Z,12.18
2022-10-13T19:24:47.526Z,12.14
2022-10-13T19:29:51.519Z,12.08
2022-10-13T19:34:52.864Z,12.00
2022-10-13T19:39:54.163Z,12.03
2022-10-13T19:44:55.525Z,11.96
2022-10-13T19:49:56.856Z,11.99
2022-10-13T19:54:58.274Z,12.01
2022-10-13T19:59:59.578Z,12.02
2022-10-13T20:05:00.970Z,12.01
2022-10-13T20:10:02.311Z,12.07
2022-10-13T20:15:03.772Z,12.07
2022-10-13T20:20:05.692Z,12.16
2022-10-13T20:25:07.422Z,12.13
2022-10-13T20:30:09.096Z,12.08
2022-10-13T20:35:10.414Z,12.02
2022-10-13T20:40:11.786Z,11.96
2022-10-13T20:45:13.086Z,11.95
2022-10-13T20:50:14.460Z,11.99
2022-10-13T20:55:15.796Z,11.85
2022-10-13T21:00:17.227Z,11.81
2022-10-13T21:05:18.545Z,11.81
2022-10-13T21:10:19.838Z,11.79
2022-10-13T21:15:21.135Z,11.86
2022-10-13T21:20:22.447Z,11.90
2022-10-13T21:25:23.892Z,11.86
2022-10-13T21:30:25.329Z,11.86
2022-10-13T21:35:26.747Z,11.84
2022-10-13T21:40:28.088Z,11.78
2022-10-13T21:45:29.397Z,11.75
2022-10-13T21:50:30.708Z,11.78
2022-10-13T21:55:33.030Z,11.76
2022-10-13T22:00:34.452Z,11.76
2022-10-13T22:05:35.812Z,11.87
2022-10-13T22:10:37.117Z,11.85
2022-10-13T22:15:38.454Z,11.73
2022-10-13T22:20:39.834Z,11.71
2022-10-13T22:25:45.204Z,11.75
2022-10-13T22:30:46.540Z,11.79
2022-10-13T22:35:47.863Z,11.72
2022-10-13T22:40:49.161Z,11.67
2022-10-13T22:45:51.763Z,11.66
2022-10-13T22:50:53.257Z,11.63
2022-10-13T22:55:54.561Z,11.61
2022-10-13T23:00:55.979Z,11.66
2022-10-13T23:05:57.300Z,11.62
2022-10-13T23:10:58.738Z,11.69
2022-10-13T23:16:00.843Z,11.68
2022-10-13T23:21:09.187Z,11.67
2022-10-13T23:26:11.990Z,11.67
2022-10-13T23:31:14.912Z,11.66
2022-10-13T23:36:17.802Z,11.70
2022-10-13T23:41:19.106Z,11.74
2022-10-13T23:46:20.452Z,11.77
2022-10-13T23:51:23.273Z,11.75
2022-10-13T23:56:24.727Z,11.78
